createdAt,value
2017-09-16T00:02:18.051Z,92.70
2017-09-16T00:04:45.918Z,92.80
2017-09-16T00:07:13.786Z,92.70
2017-09-16T00:09:41.658Z,92.90
2017-09-16T00:12:09.386Z,93.20
2017-09-16T00:14:37.182Z,93.50
2017-09-16T00:17:04.887Z,93.30
2017-09-16T00:19:33.429Z,92.80
2017-09-16T00:22:01.297Z,92.80
2017-09-16T00:24:29.163Z,92.70
2017-09-16T00:26:56.866Z,92.50
2017-09-16T00:29:25.513Z,92.80
2017-09-16T00:31:53.234Z,92.80
2017-09-16T00:34:20.959Z,92.80
2017-09-16T00:36:48.706Z,92.60
2017-09-16T00:39:16.573Z,92.80
2017-09-16T00:41:44.440Z,93.00
2017-09-16T00:44:12.308Z,92.90
2017-09-16T00:46:40.174Z,93.10
2017-09-16T00:49:07.883Z,93.00
2017-09-16T00:51:36.523Z,93.20
2017-09-16T00:54:04.393Z,93.20
2017-09-16T00:56:32.263Z,93.20
2017-09-16T00:58:59.986Z,92.90
2017-09-16T01:01:27.687Z,93.10
2017-09-16T01:06:30.179Z,93.30
2017-09-16T01:08:57.921Z,93.20
2017-09-16T01:11:25.814Z,92.90
2017-09-16T01:13:53.678Z,92.60
2017-09-16T01:16:21.394Z,92.60
2017-09-16T01:18:49.153Z,92.60
2017-09-16T01:21:17.673Z,92.70
2017-09-16T01:23:45.438Z,92.70
2017-09-16T01:26:13.322Z,92.70
2017-09-16T01:28:41.189Z,92.90
2017-09-16T01:31:09.056Z,92.80
2017-09-16T01:33:36.844Z,92.70
2017-09-16T01:36:04.630Z,92.70
2017-09-16T01:38:33.167Z,92.90
2017-09-16T01:41:01.038Z,92.90
2017-09-16T01:43:28.766Z,92.80
2017-09-16T01:45:56.481Z,93.10
2017-09-16T01:48:24.333Z,93.10
2017-09-16T01:50:52.199Z,93.20
2017-09-16T01:53:19.901Z,93.50
2017-09-16T01:55:48.387Z,93.60
2017-09-16T01:58:16.866Z,93.50
2017-09-16T02:00:45.354Z,93.80
2017-09-16T02:03:13.996Z,94.30
2017-09-16T02:05:41.863Z,94.30
2017-09-16T02:08:09.734Z,94.10
2017-09-16T02:10:37.438Z,93.90
2017-09-16T02:13:06.081Z,93.50
2017-09-16T02:15:33.947Z,93.50
2017-09-16T02:18:01.666Z,93.50
2017-09-16T02:20:29.381Z,93.40
2017-09-16T02:22:57.157Z,93.60
2017-09-16T02:25:25.005Z,93.70
2017-09-16T02:27:52.871Z,93.90
2017-09-16T02:30:20.587Z,93.40
2017-09-16T02:32:48.401Z,93.20
2017-09-16T02:35:16.101Z,92.70
2017-09-16T02:37:44.566Z,92.70
2017-09-16T02:40:12.415Z,92.60
2017-09-16T02:42:40.119Z,92.60
2017-09-16T02:45:08.659Z,92.40
2017-09-16T02:47:36.526Z,92.40
2017-09-16T02:50:04.398Z,92.60
2017-09-16T02:52:32.261Z,92.50
2017-09-16T02:55:00.130Z,92.40
2017-09-16T02:57:28.025Z,92.40
2017-09-16T02:59:55.864Z,92.30
2017-09-16T03:02:23.578Z,92.20
2017-09-16T03:04:52.058Z,92.20
2017-09-16T03:07:20.529Z,92.40
2017-09-16T03:09:48.994Z,92.40
2017-09-16T03:12:16.702Z,92.40
2017-09-16T03:14:44.399Z,92.60
2017-09-16T03:17:12.102Z,92.60
2017-09-16T03:19:40.578Z,92.60
2017-09-16T03:22:09.126Z,92.90
2017-09-16T03:24:36.994Z,92.60
2017-09-16T03:27:04.702Z,92.80
2017-09-16T03:29:33.178Z,93.30
2017-09-16T03:32:01.656Z,93.60
2017-09-16T03:34:30.306Z,93.70
2017-09-16T03:36:58.010Z,93.60
2017-09-16T03:39:26.655Z,93.70
2017-09-16T03:41:54.523Z,93.70
2017-09-16T03:44:22.390Z,93.60
2017-09-16T03:46:50.181Z,93.60
2017-09-16T03:49:18.658Z,94.20
2017-09-16T03:51:46.503Z,94.20
2017-09-16T03:54:14.371Z,94.50
2017-09-16T03:56:42.244Z,94.50
2017-09-16T03:59:09.954Z,94.50
2017-09-16T04:01:49.539Z,94.60
2017-09-16T04:04:17.247Z,94.50
2017-09-16T04:06:45.717Z,94.20
2017-09-16T04:09:13.421Z,94.20
2017-09-16T04:11:41.135Z,93.90
2017-09-16T04:14:08.842Z,94.10
2017-09-16T04:16:36.647Z,93.90
2017-09-16T04:19:07.748Z,93.80
2017-09-16T04:21:39.092Z,93.90
2017-09-16T04:24:10.290Z,93.70
2017-09-16T04:26:41.306Z,93.60
2017-09-16T04:29:13.367Z,93.60
2017-09-16T04:31:45.799Z,93.50
2017-09-16T04:34:17.949Z,93.50
2017-09-16T04:36:49.397Z,93.50
2017-09-16T04:39:20.290Z,93.50
2017-09-16T04:41:51.527Z,93.50
2017-09-16T04:44:24.417Z,93.70
2017-09-16T04:46:57.392Z,93.70
2017-09-16T04:49:31.518Z,93.90
2017-09-16T04:52:04.695Z,93.80
2017-09-16T04:54:37.506Z,93.80
2017-09-16T04:57:10.837Z,93.80
2017-09-16T04:59:44.130Z,93.80
2017-09-16T05:02:21.841Z,94.00
2017-09-16T05:04:49.599Z,94.00
2017-09-16T05:07:18.107Z,94.20
2017-09-16T05:09:46.583Z,94.40
2017-09-16T05:12:15.059Z,94.40
2017-09-16T05:14:48.466Z,94.40
2017-09-16T05:17:20.965Z,94.30
2017-09-16T05:19:53.334Z,94.30
2017-09-16T05:22:25.194Z,94.20
2017-09-16T05:24:57.174Z,94.20
2017-09-16T05:27:28.845Z,94.30
2017-09-16T05:30:00.450Z,94.30
2017-09-16T05:32:32.136Z,94.50
2017-09-16T05:35:03.733Z,94.30
2017-09-16T05:37:35.185Z,94.10
2017-09-16T05:40:03.040Z,94.10
2017-09-16T05:42:30.742Z,94.10
2017-09-16T05:44:59.214Z,94.00
2017-09-16T05:47:26.913Z,94.00
2017-09-16T05:49:54.717Z,93.90
2017-09-16T05:52:22.582Z,93.80
2017-09-16T05:54:50.453Z,93.70
2017-09-16T05:57:18.185Z,93.50
2017-09-16T05:59:45.886Z,93.40
2017-09-16T06:02:13.743Z,93.60
2017-09-16T06:04:41.467Z,93.50
2017-09-16T06:07:09.273Z,93.70
2017-09-16T06:09:37.071Z,93.60
2017-09-16T06:12:05.677Z,93.90
2017-09-16T06:14:33.426Z,93.80
2017-09-16T06:17:02.074Z,93.80
2017-09-16T06:19:30.764Z,93.80
2017-09-16T06:21:58.627Z,93.60
2017-09-16T06:24:26.496Z,93.60
2017-09-16T06:26:54.206Z,93.70
2017-09-16T06:29:22.776Z,93.40
2017-09-16T06:31:51.270Z,92.90
2017-09-16T06:34:19.910Z,92.70
2017-09-16T06:36:47.628Z,92.70
2017-09-16T06:39:15.354Z,92.90
2017-09-16T06:41:43.065Z,93.20
2017-09-16T06:44:10.867Z,93.60
2017-09-16T06:46:38.739Z,93.30
2017-09-16T06:49:06.602Z,92.80
2017-09-16T06:51:34.314Z,92.90
2017-09-16T06:54:02.951Z,93.10
2017-09-16T06:56:30.818Z,93.10
2017-09-16T06:58:58.549Z,93.90
2017-09-16T07:01:26.263Z,94.10
2017-09-16T07:03:53.986Z,93.90
2017-09-16T07:06:21.713Z,93.80
2017-09-16T07:08:50.360Z,93.60
2017-09-16T07:11:18.227Z,93.60
2017-09-16T07:13:46.095Z,93.60
2017-09-16T07:16:13.962Z,93.20
2017-09-16T07:18:42.464Z,93.60
2017-09-16T07:21:10.310Z,93.50
2017-09-16T07:23:38.043Z,93.40
2017-09-16T07:26:05.761Z,93.30
2017-09-16T07:28:33.606Z,93.50
2017-09-16T07:31:01.331Z,93.90
2017-09-16T07:33:29.083Z,93.80
2017-09-16T07:35:57.571Z,93.90
2017-09-16T07:38:25.352Z,93.90
2017-09-16T07:40:53.112Z,93.30
2017-09-16T07:43:21.899Z,93.30
2017-09-16T07:45:49.802Z,93.10
2017-09-16T07:48:17.570Z,93.50
2017-09-16T07:50:45.436Z,93.90
2017-09-16T07:53:13.302Z,91.80
2017-09-16T07:55:41.170Z,92.60
2017-09-16T07:58:08.895Z,92.80
2017-09-16T08:00:36.704Z,92.40
2017-09-16T08:03:04.569Z,92.70
2017-09-16T08:05:32.302Z,92.00
2017-09-16T08:08:00.101Z,91.40
2017-09-16T08:10:28.072Z,91.60
2017-09-16T08:12:56.037Z,91.30
2017-09-16T08:15:23.905Z,91.80
2017-09-16T08:17:51.873Z,91.70
2017-09-16T08:20:19.741Z,91.80
2017-09-16T08:22:47.608Z,91.20
2017-09-16T08:25:15.475Z,90.70
2017-09-16T08:27:43.344Z,91.40
2017-09-16T08:30:11.210Z,91.90
2017-09-16T08:32:38.950Z,92.10
2017-09-16T08:35:06.739Z,92.00
2017-09-16T08:37:34.606Z,92.50
2017-09-16T08:40:02.330Z,92.40
2017-09-16T08:42:30.137Z,91.10
2017-09-16T08:44:58.004Z,90.20
2017-09-16T08:47:25.871Z,91.60
2017-09-16T08:49:53.745Z,90.90
2017-09-16T08:52:21.606Z,91.40
2017-09-16T08:54:49.476Z,91.70
2017-09-16T08:57:17.341Z,91.70
2017-09-16T08:59:45.207Z,90.00
2017-09-16T09:02:13.076Z,88.50
2017-09-16T09:04:40.943Z,89.40
2017-09-16T09:07:08.809Z,90.10
2017-09-16T09:09:36.677Z,89.30
2017-09-16T09:12:04.543Z,88.40
2017-09-16T09:14:32.414Z,86.30
2017-09-16T09:17:00.278Z,86.70
2017-09-16T09:19:28.024Z,86.00
2017-09-16T09:21:55.727Z,87.50
2017-09-16T09:24:23.581Z,85.90
2017-09-16T09:26:51.440Z,90.10
2017-09-16T09:29:19.308Z,90.60
2017-09-16T09:31:47.175Z,88.80
2017-09-16T09:34:14.896Z,82.30
2017-09-16T09:36:42.634Z,82.00
2017-09-16T09:39:10.471Z,79.40
2017-09-16T09:41:38.338Z,82.10
2017-09-16T09:44:06.205Z,87.10
2017-09-16T09:46:34.072Z,81.00
2017-09-16T09:49:01.940Z,85.60
2017-09-16T09:51:29.807Z,86.30
2017-09-16T09:53:57.675Z,78.80
2017-09-16T09:56:25.541Z,76.30
2017-09-16T09:58:53.409Z,78.20
2017-09-16T10:01:21.276Z,81.30
2017-09-16T10:03:49.143Z,82.80
2017-09-16T10:06:17.010Z,80.90
2017-09-16T10:08:44.877Z,79.40
2017-09-16T10:11:12.745Z,80.30
2017-09-16T10:13:40.612Z,78.80
2017-09-16T10:16:08.480Z,78.90
2017-09-16T10:18:36.346Z,73.40
2017-09-16T10:21:04.214Z,68.30
2017-09-16T10:23:32.082Z,68.80
2017-09-16T10:25:59.949Z,73.80
2017-09-16T10:28:27.819Z,71.80
2017-09-16T10:30:55.683Z,71.90
2017-09-16T10:33:23.551Z,72.40
2017-09-16T10:35:51.418Z,71.10
2017-09-16T10:38:19.286Z,68.10
2017-09-16T10:40:47.153Z,66.90
2017-09-16T10:43:15.021Z,63.70
2017-09-16T10:45:42.890Z,64.60
2017-09-16T10:48:10.755Z,64.40
2017-09-16T10:50:38.621Z,62.50
2017-09-16T10:53:06.488Z,67.00
2017-09-16T10:55:34.356Z,64.90
2017-09-16T10:58:02.531Z,64.70
2017-09-16T11:00:30.322Z,64.00
2017-09-16T11:02:58.883Z,65.10
2017-09-16T11:05:26.749Z,64.70
2017-09-16T11:07:54.618Z,67.00
2017-09-16T11:10:22.485Z,63.50
2017-09-16T11:12:50.354Z,63.10
2017-09-16T11:15:18.220Z,66.50
2017-09-16T11:17:46.086Z,68.50
2017-09-16T11:20:13.951Z,64.30
2017-09-16T11:22:41.822Z,65.00
2017-09-16T11:25:09.686Z,66.90
2017-09-16T11:27:37.552Z,66.20
2017-09-16T11:30:05.420Z,69.70
2017-09-16T11:32:33.287Z,70.50
2017-09-16T11:35:01.811Z,72.80
2017-09-16T11:37:30.287Z,73.50
2017-09-16T11:39:58.937Z,72.90
2017-09-16T11:42:26.805Z,72.80
2017-09-16T11:44:54.672Z,71.20
2017-09-16T11:47:22.539Z,71.70
2017-09-16T11:49:50.406Z,73.10
2017-09-16T11:52:18.274Z,73.50
2017-09-16T11:54:46.148Z,71.50
2017-09-16T11:57:14.009Z,72.10
2017-09-16T11:59:41.875Z,72.70
2017-09-16T12:02:09.744Z,64.90
2017-09-16T12:04:37.610Z,62.70
2017-09-16T12:07:05.478Z,60.10
2017-09-16T12:09:33.344Z,56.50
2017-09-16T12:12:01.213Z,54.40
2017-09-16T12:14:29.080Z,55.80
2017-09-16T12:16:59.371Z,57.10
2017-09-16T12:19:30.215Z,57.70
2017-09-16T12:22:00.131Z,54.50
2017-09-16T12:24:30.296Z,55.80
2017-09-16T12:27:00.575Z,55.00
2017-09-16T12:29:31.663Z,55.00
2017-09-16T12:32:02.584Z,58.80
2017-09-16T12:34:32.774Z,55.80
2017-09-16T12:37:03.577Z,57.30
2017-09-16T12:39:35.780Z,54.80
2017-09-16T12:42:09.498Z,57.60
2017-09-16T12:44:40.379Z,56.70
2017-09-16T12:47:11.510Z,54.20
2017-09-16T12:49:42.096Z,56.40
2017-09-16T12:52:15.144Z,54.50
2017-09-16T12:54:50.121Z,52.60
2017-09-16T12:57:23.236Z,53.90
2017-09-16T12:59:55.934Z,52.40
2017-09-16T13:02:28.665Z,50.50
2017-09-16T13:05:01.265Z,48.70
2017-09-16T13:07:33.731Z,52.00
2017-09-16T13:10:06.452Z,48.00
2017-09-16T13:12:39.867Z,50.40
2017-09-16T13:15:14.005Z,54.40
2017-09-16T13:17:46.230Z,54.30
2017-09-16T13:20:18.364Z,55.00
2017-09-16T13:22:49.264Z,53.10
2017-09-16T13:25:20.905Z,55.20
2017-09-16T13:27:51.487Z,55.20
2017-09-16T13:30:25.691Z,52.10
2017-09-16T13:32:59.426Z,53.80
2017-09-16T13:35:32.686Z,52.70
2017-09-16T13:38:07.141Z,53.50
2017-09-16T13:40:34.881Z,58.30
2017-09-16T13:43:02.618Z,58.60
2017-09-16T13:45:31.095Z,58.00
2017-09-16T13:47:59.582Z,56.60
2017-09-16T13:50:28.071Z,56.80
2017-09-16T13:52:55.779Z,56.80
2017-09-16T13:55:23.499Z,58.20
2017-09-16T13:57:51.211Z,58.80
2017-09-16T14:00:18.922Z,61.90
2017-09-16T14:02:47.404Z,64.30
2017-09-16T14:05:15.916Z,64.40
2017-09-16T14:07:43.659Z,64.40
2017-09-16T14:10:11.399Z,65.20
2017-09-16T14:12:39.891Z,69.40
2017-09-16T14:15:08.377Z,69.00
2017-09-16T14:17:36.857Z,71.10
2017-09-16T14:20:05.334Z,70.30
2017-09-16T14:22:33.816Z,69.40
2017-09-16T14:25:02.300Z,70.20
2017-09-16T14:27:30.774Z,70.80
2017-09-16T14:29:59.255Z,72.50
2017-09-16T14:32:27.751Z,73.30
2017-09-16T14:34:56.228Z,74.40
2017-09-16T14:37:24.694Z,74.30
2017-09-16T14:39:52.398Z,74.20
2017-09-16T14:42:20.123Z,74.10
2017-09-16T14:44:47.831Z,75.20
2017-09-16T14:47:15.544Z,74.90
2017-09-16T14:49:43.257Z,74.40
2017-09-16T14:52:10.970Z,75.80
2017-09-16T14:54:38.678Z,77.80
2017-09-16T14:57:06.396Z,78.50
2017-09-16T14:59:34.112Z,79.30
2017-09-16T15:02:01.854Z,80.80
2017-09-16T15:04:30.343Z,83.10
2017-09-16T15:06:58.055Z,83.10
2017-09-16T15:09:25.780Z,83.50
2017-09-16T15:11:53.492Z,84.80
2017-09-16T15:14:21.215Z,85.80
2017-09-16T15:16:48.922Z,85.30
2017-09-16T15:19:16.639Z,87.20
2017-09-16T15:21:44.347Z,87.50
2017-09-16T15:24:12.061Z,89.40
2017-09-16T15:26:39.770Z,90.30
2017-09-16T15:29:07.479Z,90.50
2017-09-16T15:31:35.190Z,90.40
2017-09-16T15:34:02.964Z,90.20
2017-09-16T15:36:30.683Z,90.40
2017-09-16T15:38:58.392Z,90.10
2017-09-16T15:41:26.145Z,89.30
2017-09-16T15:43:53.850Z,90.10
2017-09-16T15:46:22.383Z,90.20
2017-09-16T15:48:50.106Z,90.20
2017-09-16T15:51:17.830Z,90.50
2017-09-16T15:53:45.559Z,90.10
2017-09-16T15:56:13.276Z,88.80
2017-09-16T15:58:40.995Z,89.10
2017-09-16T16:01:08.718Z,88.70
2017-09-16T16:03:37.201Z,90.20
2017-09-16T16:06:05.692Z,90.20
2017-09-16T16:08:33.415Z,90.10
2017-09-16T16:11:01.142Z,90.10
2017-09-16T16:13:28.862Z,90.40
2017-09-16T16:15:57.353Z,90.60
2017-09-16T16:18:25.836Z,90.40
2017-09-16T16:20:54.345Z,90.10
2017-09-16T16:23:22.973Z,90.10
2017-09-16T16:25:50.693Z,87.20
2017-09-16T16:28:18.407Z,88.50
2017-09-16T16:30:47.447Z,89.40
2017-09-16T16:33:16.815Z,90.10
2017-09-16T16:35:46.365Z,90.50
2017-09-16T16:38:16.190Z,90.90
2017-09-16T16:40:45.052Z,91.10
2017-09-16T16:43:12.865Z,91.00
2017-09-16T16:45:47.591Z,90.90
2017-09-16T16:48:15.435Z,91.00
2017-09-16T16:50:45.235Z,90.60
2017-09-16T16:53:12.954Z,90.70
2017-09-16T16:55:42.156Z,90.60
2017-09-16T16:58:09.902Z,90.70
2017-09-16T17:00:37.689Z,91.80
2017-09-16T17:03:06.675Z,91.50
2017-09-16T17:05:34.393Z,91.30
2017-09-16T17:08:02.530Z,91.20
2017-09-16T17:10:30.286Z,91.00
2017-09-16T17:12:58.116Z,90.80
2017-09-16T17:15:25.830Z,90.70
2017-09-16T17:17:54.313Z,91.20
2017-09-16T17:20:22.797Z,91.30
2017-09-16T17:22:50.560Z,91.30
2017-09-16T17:25:26.717Z,91.40
2017-09-16T17:27:57.216Z,91.40
2017-09-16T17:30:29.003Z,91.70
2017-09-16T17:33:00.621Z,91.70
2017-09-16T17:35:31.821Z,91.60
2017-09-16T17:38:03.170Z,91.60
2017-09-16T17:40:34.246Z,91.50
2017-09-16T17:43:07.782Z,91.50
2017-09-16T17:45:39.463Z,91.50
2017-09-16T17:48:11.580Z,91.50
2017-09-16T17:50:43.376Z,91.40
2017-09-16T17:53:15.739Z,91.50
2017-09-16T17:55:46.378Z,91.50
2017-09-16T17:58:17.025Z,91.70
2017-09-16T18:00:47.265Z,91.40
2017-09-16T18:03:16.787Z,91.40
2017-09-16T18:05:46.496Z,91.30
2017-09-16T18:08:15.914Z,91.30
2017-09-16T18:10:47.329Z,91.50
2017-09-16T18:13:19.533Z,91.40
2017-09-16T18:15:50.560Z,91.60
2017-09-16T18:18:21.483Z,91.60
2017-09-16T18:20:53.141Z,91.60
2017-09-16T18:23:24.919Z,91.50
2017-09-16T18:25:56.285Z,92.00
2017-09-16T18:28:27.639Z,91.80
2017-09-16T18:30:58.353Z,92.10
2017-09-16T18:33:28.685Z,93.30
2017-09-16T18:35:59.362Z,93.00
2017-09-16T18:38:30.740Z,93.40
2017-09-16T18:41:01.045Z,93.40
2017-09-16T18:43:29.523Z,92.90
2017-09-16T18:46:02.906Z,92.50
2017-09-16T18:48:33.734Z,92.40
2017-09-16T18:51:04.820Z,92.20
2017-09-16T18:53:36.311Z,92.30
2017-09-16T18:56:08.626Z,92.60
2017-09-16T18:58:40.730Z,92.40
2017-09-16T19:01:12.175Z,92.40
2017-09-16T19:03:43.539Z,92.50
2017-09-16T19:06:13.714Z,92.50
2017-09-16T19:08:45.193Z,92.50
2017-09-16T19:11:18.759Z,92.40
2017-09-16T19:13:49.904Z,92.90
2017-09-16T19:16:21.336Z,92.80
2017-09-16T19:18:51.926Z,92.70
2017-09-16T19:21:22.799Z,92.60
2017-09-16T19:23:52.059Z,92.60
2017-09-16T19:26:22.781Z,92.60
2017-09-16T19:28:54.642Z,92.90
2017-09-16T19:31:25.438Z,93.30
2017-09-16T19:33:56.153Z,93.80
2017-09-16T19:36:30.419Z,94.10
2017-09-16T19:39:02.597Z,93.50
2017-09-16T19:41:34.330Z,93.50
2017-09-16T19:44:06.921Z,94.60
2017-09-16T19:46:39.981Z,94.80
2017-09-16T19:49:12.100Z,94.80
2017-09-16T19:51:44.603Z,94.60
2017-09-16T19:54:15.290Z,94.60
2017-09-16T19:56:43.881Z,93.90
2017-09-16T19:59:11.674Z,93.90
2017-09-16T20:01:39.434Z,93.60
2017-09-16T20:04:07.196Z,93.30
2017-09-16T20:06:35.552Z,93.30
2017-09-16T20:09:03.594Z,93.10
2017-09-16T20:11:31.311Z,92.80
2017-09-16T20:13:59.035Z,92.70
2017-09-16T20:16:27.787Z,92.60
2017-09-16T20:18:55.502Z,92.60
2017-09-16T20:21:23.287Z,92.40
2017-09-16T20:23:51.006Z,92.50
2017-09-16T20:26:18.726Z,92.30
2017-09-16T20:28:46.451Z,92.20
2017-09-16T20:31:14.930Z,92.70
2017-09-16T20:33:43.462Z,92.60
2017-09-16T20:36:12.372Z,92.60
2017-09-16T20:38:41.292Z,92.60
2017-09-16T20:41:09.776Z,92.40
2017-09-16T20:43:38.258Z,92.10
2017-09-16T20:46:06.738Z,92.00
2017-09-16T20:48:35.215Z,91.80
2017-09-16T20:51:03.708Z,91.80
2017-09-16T20:53:32.185Z,91.80
2017-09-16T20:56:00.671Z,91.80
2017-09-16T20:58:29.152Z,92.20
2017-09-16T21:00:57.639Z,92.10
2017-09-16T21:03:25.396Z,92.00
2017-09-16T21:05:53.877Z,92.10
2017-09-16T21:08:22.416Z,92.30
2017-09-16T21:10:50.138Z,92.30
2017-09-16T21:13:17.855Z,92.60
2017-09-16T21:15:45.606Z,92.80
2017-09-16T21:18:13.319Z,92.60
2017-09-16T21:20:41.845Z,92.10
2017-09-16T21:23:09.570Z,92.10
2017-09-16T21:25:38.084Z,92.10
2017-09-16T21:28:05.789Z,92.10
2017-09-16T21:30:33.521Z,92.00
2017-09-16T21:33:01.227Z,92.00
2017-09-16T21:35:28.946Z,92.10
2017-09-16T21:37:56.668Z,92.00
2017-09-16T21:40:25.153Z,92.50
2017-09-16T21:42:53.655Z,92.60
2017-09-16T21:45:21.371Z,92.60
2017-09-16T21:47:49.082Z,92.30
2017-09-16T21:50:16.811Z,92.10
2017-09-16T21:52:45.304Z,92.40
2017-09-16T21:55:13.786Z,93.00
2017-09-16T21:57:42.266Z,93.00
2017-09-16T22:00:10.782Z,92.70
2017-09-16T22:02:38.506Z,92.70
2017-09-16T22:05:06.995Z,92.10
2017-09-16T22:07:35.485Z,92.00
2017-09-16T22:10:03.255Z,92.00
2017-09-16T22:12:30.965Z,91.80
2017-09-16T22:14:58.677Z,91.60
2017-09-16T22:17:27.152Z,91.50
2017-09-16T22:20:01.898Z,91.40
2017-09-16T22:22:30.403Z,91.40
2017-09-16T22:24:58.125Z,91.40
2017-09-16T22:27:26.604Z,91.60
2017-09-16T22:29:55.078Z,91.60
2017-09-16T22:32:22.785Z,91.50
2017-09-16T22:34:50.507Z,91.50
2017-09-16T22:37:18.999Z,91.70
2017-09-16T22:39:47.510Z,91.60
2017-09-16T22:42:15.275Z,91.60
2017-09-16T22:44:42.977Z,91.70
2017-09-16T22:47:10.697Z,91.60
2017-09-16T22:49:38.417Z,91.50
2017-09-16T22:52:06.123Z,91.40
2017-09-16T22:54:33.839Z,91.50
2017-09-16T22:57:01.550Z,91.90
2017-09-16T22:59:29.262Z,91.70
2017-09-16T23:01:56.991Z,91.60
2017-09-16T23:06:58.745Z,91.30
2017-09-16T23:09:26.463Z,91.60
2017-09-16T23:11:54.178Z,91.60
2017-09-16T23:14:21.899Z,91.70
2017-09-16T23:16:49.611Z,92.00
2017-09-16T23:19:17.347Z,91.70
2017-09-16T23:21:45.839Z,91.50
2017-09-16T23:24:14.319Z,91.30
2017-09-16T23:26:42.803Z,92.00
2017-09-16T23:29:11.284Z,92.40
2017-09-16T23:31:38.997Z,92.40
2017-09-16T23:34:06.713Z,92.30
2017-09-16T23:36:34.434Z,92.00
2017-09-16T23:39:02.152Z,91.70
2017-09-16T23:41:29.896Z,91.60
2017-09-16T23:43:58.390Z,91.50
2017-09-16T23:46:26.107Z,91.50
2017-09-16T23:48:53.824Z,91.30
2017-09-16T23:51:21.564Z,91.50
2017-09-16T23:53:50.056Z,91.60
2017-09-16T23:56:18.530Z,91.30
2017-09-16T23:58:47.011Z,92.10
